Churubusco, New York
Current Conditions -  °F | °C
As of 2:00 PM on Thursday 23 Oct 2014 (Local Time) from KPBG Reporting Station
Light Rain Light Rain  
Wind Chill: 38°   Ceiling: 1300
Heat Index: 45°   Visibility: 7mi
Dew Point: 43°   Wind: 17mph
Humidity: 93%   Direction: 340°NNW
Pressure: 29.96"   Gusts: NA
Location:  44.95°N, 73.93°W
Report Text: KPBG 231800Z AUTO 34015KT 7SM -RA BKN013 OVC018 07/06 A2996 RMK AO2 P0001 T00720061
Loading
Personal Weather Stations






























Interactive Weather Map
Tropical Storm Tracking
New forecast layout! Learn more

10-Day Weather Forecast

Advertisements
Track Severe Weather on mobile